Overview Statistics Trail Chart Weather Telemetry Raw packets
 

This is the latest recevied weather packets stored in our database for station/object OK5TVR-5. If no packets are shown the sender has not sent any weather packets the latest 10 day(s).

<< 22 23 24 25 26 27 28 >>
Time Temp. Humidity Pressure Rain* Wind** Luminosity Snow
1788179969 22.78° C 54% 1008.1 hPa 0 mm - 223 W/m² -
1788179965 22.78° C 54% 1008.1 hPa 0 mm - 223 W/m² -
1788179065 23.33° C 54% 1008.2 hPa 0 mm - 96 W/m² -
1788178165 23.33° C 56% 1007.9 hPa 0 mm - 246 W/m² -
1788177265 22.78° C 56% 1008 hPa 0 mm - 283 W/m² -
1788176365 23.33° C 52% 1007.9 hPa 0 mm - 268 W/m² -
1788175465 23.33° C 57% 1007.9 hPa 0 mm - 299 W/m² -
1788174565 21.11° C 62% 1008.7 hPa 0 mm - 53 W/m² -
1788173665 20.56° C 62% 1008.6 hPa 0 mm - 282 W/m² -
1788172765 21.11° C 63% 1008.5 hPa 0 mm - 294 W/m² -
1788171865 18.89° C 73% 1008.8 hPa 0 mm - 247 W/m² -
1788170965 18.89° C 73% 1008.9 hPa 0 mm - 70 W/m² -
1788170065 18.89° C 75% 1009.2 hPa 0 mm - 62 W/m² -
1788169165 19.44° C 81% 1009 hPa 0 mm - 74 W/m² -
1788168265 19.44° C 84% 1008.8 hPa 0 mm - 155 W/m² -
1788167365 18.89° C 88% 1008.9 hPa 0 mm - 123 W/m² -
1788166469 18.89° C 91% 1008.7 hPa 0 mm - 142 W/m² -
1788166469 18.89° C 91% 1008.7 hPa 0 mm - 142 W/m² -
1788166465 18.89° C 91% 1008.7 hPa 0 mm - 142 W/m² -
1788165569 18.33° C 91% 1008.8 hPa 0 mm - 79 W/m² -
1788165565 18.33° C 91% 1008.8 hPa 0 mm - 79 W/m² -
1788165565 18.33° C 91% 1008.8 hPa 0 mm - 79 W/m² -
1788164665 17.22° C 95% 1008.9 hPa 0 mm - 63 W/m² -
1788163765 17.22° C 95% 1008.6 hPa 0 mm - 76 W/m² -
1788162865 17.78° C 90% 1008.5 hPa 0 mm - 22 W/m² -

* Rain latest hour (hover to see other rain measurements)
** Current wind speed in m/s (hover to see current wind gust speed)